Thunder radar more information blitzortung!


Radar de pluja more information rain snow radar


Visita la nostra xarxa de llocs de meteo:

Template documentation
and downloads

And another site



No particular awareness of the weather is required.    There are no Weather-warnings

Pagina Historial Weather Underground text

Diari Resum Setembre 10, 2017 Unitats:  Mètric    Imperial   Tant
« Previous Dia
SegĂźent Dia »
Diari Setmana Mensual Anual Personalitzada
  Maxima: Minima: Media:
Temperatura: 27.2 °C 11.6 °C 20.6 °C
Punt de rosada: 11.8 °C 4.5 °C 7.8 °C
Humitat: 83 % 27 % 46 %
Wind Speed: 20.4 km/h 0.0 km/h 7.4 km/h
RĂ fegues de vent: 20.4 km/h - -
Vent:- - South
Pression baro: 1010.0 hPa 1003.9 hPa -
Precipitacions: 0.0 mm    
Historical Graphs
 
 
Dades de taula per Setembre 10, 2017
Temps Temperatura Punt de rosada Pression baro Vent Wind Speed RĂ fegues de vent Humitat Rainfall Rate (Hourly)
00:04 14.7 °C 11.8 °C 1005.0 hPa East 3.7 km/h 3.7 km/h 83 % 0.0 mm
00:05 12.4 °C 7.9 °C 1005.0 hPa Calm   1.6 km/h 74 % 0.0 mm
00:09 14.7 °C 11.7 °C 1003.9 hPa East 2.6 km/h 2.6 km/h 82 % 0.0 mm
00:14 14.6 °C 11.6 °C 1003.9 hPa Calm     82 % 0.0 mm
00:15 12.1 °C 7.8 °C 1003.9 hPa SW 3.2 km/h 3.2 km/h 75 % 0.0 mm
00:19 14.6 °C 11.6 °C 1003.9 hPa Calm     82 % 0.0 mm
00:25 11.8 °C 7.5 °C 1005.0 hPa WSW 3.2 km/h 3.2 km/h 75 % 0.0 mm
00:35 12.0 °C 7.7 °C 1005.0 hPa West 1.6 km/h 4.8 km/h 75 % 0.0 mm
00:45 12.3 °C 7.8 °C 1005.0 hPa NW 1.6 km/h 3.2 km/h 74 % 0.0 mm
00:55 12.4 °C 7.7 °C 1005.0 hPa North 3.2 km/h 4.8 km/h 73 % 0.0 mm
01:05 12.4 °C 7.7 °C 1005.0 hPa NW 1.6 km/h 4.8 km/h 73 % 0.0 mm
01:15 12.3 °C 7.4 °C 1005.0 hPa Calm   3.2 km/h 72 % 0.0 mm
01:25 12.1 °C 7.4 °C 1005.0 hPa Calm   1.6 km/h 73 % 0.0 mm
01:35 11.9 °C 7.2 °C 1005.0 hPa Calm   3.2 km/h 73 % 0.0 mm
01:45 11.8 °C 7.1 °C 1005.0 hPa Calm     73 % 0.0 mm
01:55 11.8 °C 7.3 °C 1006.0 hPa NNW 1.6 km/h 4.8 km/h 74 % 0.0 mm
02:05 11.7 °C 7.2 °C 1006.0 hPa NNW 1.6 km/h 4.8 km/h 74 % 0.0 mm
02:15 11.6 °C 7.1 °C 1006.0 hPa NW 1.6 km/h 3.2 km/h 74 % 0.0 mm
02:25 11.7 °C 7.2 °C 1006.0 hPa NE 1.6 km/h 4.8 km/h 74 % 0.0 mm
02:35 11.6 °C 7.1 °C 1006.0 hPa NE 1.6 km/h 3.2 km/h 74 % 0.0 mm
02:45 11.6 °C 6.9 °C 1006.0 hPa NW 1.6 km/h 3.2 km/h 73 % 0.0 mm
02:55 11.8 °C 7.1 °C 1006.0 hPa WSW 4.8 km/h 6.4 km/h 73 % 0.0 mm
03:05 11.9 °C 7.2 °C 1006.0 hPa WSW 1.6 km/h 3.2 km/h 73 % 0.0 mm
03:15 12.3 °C 7.6 °C 1006.0 hPa WSW 1.6 km/h 3.2 km/h 73 % 0.0 mm
03:25 12.8 °C 7.9 °C 1006.0 hPa WSW 3.2 km/h 6.4 km/h 72 % 0.0 mm
03:35 12.9 °C 7.8 °C 1006.0 hPa WSW 1.6 km/h 3.2 km/h 71 % 0.0 mm
03:45 14.0 °C 8.6 °C 1006.0 hPa SSW 1.6 km/h 3.2 km/h 70 % 0.0 mm
03:55 14.5 °C 8.7 °C 1006.0 hPa ENE 3.2 km/h 3.2 km/h 68 % 0.0 mm
04:05 14.9 °C 9.1 °C 1006.0 hPa Calm   4.8 km/h 68 % 0.0 mm
04:15 15.0 °C 8.7 °C 1006.0 hPa NNE 1.6 km/h 4.8 km/h 66 % 0.0 mm
04:25 16.0 °C 9.7 °C 1006.0 hPa NE 1.6 km/h 3.2 km/h 66 % 0.0 mm
04:35 15.4 °C 8.8 °C 1006.0 hPa NE 4.8 km/h 4.8 km/h 65 % 0.0 mm
04:45 15.9 °C 9.3 °C 1006.0 hPa NE 1.6 km/h 4.8 km/h 65 % 0.0 mm
04:55 16.2 °C 9.6 °C 1006.0 hPa NE 4.8 km/h 6.4 km/h 65 % 0.0 mm
09:54 16.2 °C 9.6 °C 1006.0 hPa ENE 3.7 km/h 4.2 km/h 65 % 0.0 mm
09:59 15.7 °C 8.9 °C 1006.0 hPa NNE 7.4 km/h 7.4 km/h 64 % 0.0 mm
10:04 16.1 °C 9.1 °C 1006.0 hPa NNE 7.4 km/h 7.4 km/h 63 % 0.0 mm
10:09 16.2 °C 9.2 °C 1007.0 hPa NNW 7.4 km/h 7.4 km/h 63 % 0.0 mm
10:14 16.7 °C 9.8 °C 1007.0 hPa NE 5.0 km/h 5.0 km/h 64 % 0.0 mm
10:19 17.1 °C 10.0 °C 1007.0 hPa NE 5.6 km/h 5.6 km/h 63 % 0.0 mm
10:24 17.1 °C 9.8 °C 1007.0 hPa North 3.7 km/h 3.7 km/h 62 % 0.0 mm
10:29 17.0 °C 9.4 °C 1007.0 hPa ENE 7.4 km/h 7.4 km/h 61 % 0.0 mm
10:34 17.7 °C 10.3 °C 1007.0 hPa SW 3.9 km/h 3.9 km/h 62 % 0.0 mm
10:39 18.1 °C 10.4 °C 1007.0 hPa NE 4.2 km/h 4.2 km/h 61 % 0.0 mm
10:44 18.2 °C 10.3 °C 1007.0 hPa ENE 5.6 km/h 5.6 km/h 60 % 0.0 mm
10:49 18.0 °C 10.1 °C 1007.0 hPa East 7.4 km/h 7.4 km/h 60 % 0.0 mm
10:54 17.8 °C 9.7 °C 1007.0 hPa East 9.3 km/h 9.3 km/h 59 % 0.0 mm
10:59 18.2 °C 9.8 °C 1007.0 hPa ESE 7.4 km/h 7.4 km/h 58 % 0.0 mm
11:04 18.3 °C 10.4 °C 1007.0 hPa NNE 5.6 km/h 5.6 km/h 60 % 0.0 mm
11:09 18.7 °C 10.5 °C 1007.0 hPa ENE 5.6 km/h 5.6 km/h 59 % 0.0 mm
11:14 19.2 °C 10.4 °C 1007.0 hPa East 5.6 km/h 5.6 km/h 57 % 0.0 mm
11:19 19.4 °C 10.7 °C 1007.0 hPa NE 5.6 km/h 5.6 km/h 57 % 0.0 mm
11:24 19.4 °C 10.7 °C 1007.0 hPa East 7.4 km/h 7.4 km/h 57 % 0.0 mm
11:29 19.7 °C 10.7 °C 1007.0 hPa North 5.6 km/h 5.6 km/h 56 % 0.0 mm
11:34 20.1 °C 10.2 °C 1007.0 hPa ESE 5.6 km/h 5.6 km/h 53 % 0.0 mm
11:39 20.1 °C 10.2 °C 1007.0 hPa East 9.0 km/h 9.0 km/h 53 % 0.0 mm
11:44 20.1 °C 10.2 °C 1007.0 hPa ESE 9.3 km/h 9.3 km/h 53 % 0.0 mm
11:49 20.2 °C 10.0 °C 1007.0 hPa ESE 7.4 km/h 7.6 km/h 52 % 0.0 mm
11:54 20.5 °C 10.9 °C 1007.0 hPa NNE 5.6 km/h 5.6 km/h 54 % 0.0 mm
11:59 20.9 °C 10.9 °C 1007.0 hPa ESE 5.6 km/h 5.6 km/h 53 % 0.0 mm
12:04 21.3 °C 11.1 °C 1007.0 hPa ESE 7.4 km/h 7.4 km/h 52 % 0.0 mm
12:09 21.4 °C 10.8 °C 1007.0 hPa ESE 6.4 km/h 6.4 km/h 51 % 0.0 mm
12:14 21.1 °C 10.8 °C 1007.0 hPa ENE 6.4 km/h 6.4 km/h 52 % 0.0 mm
12:19 21.9 °C 11.3 °C 1007.0 hPa WSW 5.6 km/h 5.6 km/h 51 % 0.0 mm
12:24 22.3 °C 11.4 °C 1007.0 hPa NW 9.3 km/h 9.3 km/h 50 % 0.0 mm
12:29 22.5 °C 10.9 °C 1007.0 hPa SW 18.5 km/h 18.5 km/h 48 % 0.0 mm
12:34 22.8 °C 10.9 °C 1007.0 hPa WSW 10.8 km/h 10.8 km/h 47 % 0.0 mm
12:39 22.5 °C 9.9 °C 1007.0 hPa WNW 13.0 km/h 13.0 km/h 45 % 0.0 mm
12:44 22.9 °C 10.3 °C 1007.0 hPa WSW 13.0 km/h 13.0 km/h 45 % 0.0 mm
12:49 23.0 °C 10.1 °C 1007.0 hPa SSW 9.3 km/h 9.3 km/h 44 % 0.0 mm
12:54 23.2 °C 9.9 °C 1007.0 hPa WNW 10.3 km/h 10.3 km/h 43 % 0.0 mm
12:59 23.3 °C 10.0 °C 1007.0 hPa WSW 10.3 km/h 10.3 km/h 43 % 0.0 mm
13:04 23.3 °C 8.9 °C 1007.0 hPa West 13.0 km/h 13.0 km/h 40 % 0.0 mm
13:09 23.5 °C 9.1 °C 1006.0 hPa West 13.0 km/h 13.0 km/h 40 % 0.0 mm
13:14 23.9 °C 9.8 °C 1006.0 hPa WSW 6.9 km/h 6.9 km/h 41 % 0.0 mm
13:19 24.1 °C 10.0 °C 1006.0 hPa West 9.3 km/h 11.1 km/h 41 % 0.0 mm
13:24 23.9 °C 9.5 °C 1006.0 hPa West 9.5 km/h 9.5 km/h 40 % 0.0 mm
13:29 24.2 °C 9.4 °C 1006.0 hPa SSW 16.7 km/h 16.7 km/h 39 % 0.0 mm
13:34 24.1 °C 8.9 °C 1006.0 hPa WNW 9.3 km/h 9.3 km/h 38 % 0.0 mm
13:39 24.2 °C 8.6 °C 1005.0 hPa SSW 16.7 km/h 16.7 km/h 37 % 0.0 mm
13:44 24.4 °C 9.2 °C 1005.0 hPa North 6.4 km/h 6.4 km/h 38 % 0.0 mm
13:49 24.6 °C 8.9 °C 1005.0 hPa WNW 11.1 km/h 11.1 km/h 37 % 0.0 mm
13:54 24.6 °C 8.9 °C 1006.0 hPa WNW 7.9 km/h 8.7 km/h 37 % 0.0 mm
13:59 24.8 °C 9.1 °C 1006.0 hPa NNE 9.3 km/h 9.3 km/h 37 % 0.0 mm
14:04 25.0 °C 8.1 °C 1006.0 hPa WSW 11.1 km/h 11.1 km/h 34 % 0.0 mm
14:09 24.7 °C 7.3 °C 1006.0 hPa SSW 13.0 km/h 13.0 km/h 33 % 0.0 mm
14:14 25.0 °C 7.6 °C 1006.0 hPa WNW 7.4 km/h 7.4 km/h 33 % 0.0 mm
14:19 24.8 °C 7.0 °C 1006.0 hPa SSW 14.8 km/h 14.8 km/h 32 % 0.0 mm
14:24 25.1 °C 7.2 °C 1006.0 hPa West 14.8 km/h 14.8 km/h 32 % 0.0 mm
14:25 25.1 °C 7.2 °C 1006.0 hPa West 14.8 km/h 14.8 km/h 32 % 0.0 mm
14:30 24.9 °C 7.1 °C 1006.0 hPa NW 13.0 km/h 13.0 km/h 32 % 0.0 mm
14:35 25.2 °C 6.9 °C 1006.0 hPa SSW 9.5 km/h 9.5 km/h 31 % 0.0 mm
14:40 25.4 °C 6.6 °C 1006.0 hPa West 9.3 km/h 9.3 km/h 30 % 0.0 mm
14:45 25.5 °C 6.7 °C 1006.0 hPa WNW 13.7 km/h 13.7 km/h 30 % 0.0 mm
14:50 25.4 °C 6.6 °C 1006.0 hPa WSW 12.2 km/h 12.2 km/h 30 % 0.0 mm
14:55 25.7 °C 6.8 °C 1006.0 hPa NW 9.3 km/h 9.3 km/h 30 % 0.0 mm
15:00 25.6 °C 6.2 °C 1006.0 hPa South 3.7 km/h 4.2 km/h 29 % 0.0 mm
15:05 25.8 °C 6.9 °C 1006.0 hPa West 5.6 km/h 5.6 km/h 30 % 0.0 mm
15:10 26.2 °C 7.2 °C 1006.0 hPa WNW 11.4 km/h 11.4 km/h 30 % 0.0 mm
15:15 25.9 °C 7.0 °C 1006.0 hPa WSW 14.8 km/h 14.8 km/h 30 % 0.0 mm
15:20 25.5 °C 6.2 °C 1006.0 hPa WSW 16.7 km/h 16.7 km/h 29 % 0.0 mm
15:22 25.4 °C 6.1 °C 1005.0 hPa WSW 9.3 km/h 9.5 km/h 29 % 0.0 mm
15:27 25.8 °C 6.4 °C 1005.0 hPa WSW 13.0 km/h 13.0 km/h 29 % 0.0 mm
15:32 26.1 °C 6.7 °C 1005.0 hPa WSW 11.1 km/h 11.1 km/h 29 % 0.0 mm
15:37 26.3 °C 6.8 °C 1006.0 hPa WNW 16.7 km/h 16.7 km/h 29 % 0.0 mm
15:42 26.3 °C 6.8 °C 1006.0 hPa WNW 13.0 km/h 13.0 km/h 29 % 0.0 mm
15:47 26.5 °C 7.0 °C 1006.0 hPa WSW 16.7 km/h 16.7 km/h 29 % 0.0 mm
15:52 26.6 °C 7.1 °C 1006.0 hPa West 13.0 km/h 13.0 km/h 29 % 0.0 mm
15:57 26.9 °C 7.3 °C 1006.0 hPa WNW 7.4 km/h 7.4 km/h 29 % 0.0 mm
16:02 26.7 °C 6.7 °C 1006.0 hPa SW 14.8 km/h 14.8 km/h 28 % 0.0 mm
16:07 26.5 °C 6.5 °C 1006.0 hPa NNW 16.7 km/h 16.7 km/h 28 % 0.0 mm
16:12 26.4 °C 6.4 °C 1006.0 hPa NNW 7.4 km/h 7.4 km/h 28 % 0.0 mm
16:17 26.9 °C 6.8 °C 1006.0 hPa West 7.4 km/h 7.4 km/h 28 % 0.0 mm
16:22 27.1 °C 7.0 °C 1006.0 hPa SW 11.1 km/h 11.1 km/h 28 % 0.0 mm
16:27 27.2 °C 7.1 °C 1006.0 hPa WSW 14.8 km/h 14.8 km/h 28 % 0.0 mm
16:32 27.1 °C 7.0 °C 1006.0 hPa WNW 12.6 km/h 12.6 km/h 28 % 0.0 mm
16:37 27.1 °C 7.0 °C 1007.0 hPa WSW 14.8 km/h 14.8 km/h 28 % 0.0 mm
16:42 27.0 °C 6.9 °C 1007.0 hPa SW 13.0 km/h 13.0 km/h 28 % 0.0 mm
16:47 27.0 °C 6.9 °C 1007.0 hPa West 9.3 km/h 10.8 km/h 28 % 0.0 mm
16:52 26.9 °C 6.8 °C 1005.0 hPa NW 16.7 km/h 16.7 km/h 28 % 0.0 mm
16:57 26.9 °C 6.8 °C 1005.0 hPa WSW 13.0 km/h 13.0 km/h 28 % 0.0 mm
17:02 27.1 °C 7.0 °C 1005.0 hPa WSW 9.3 km/h 9.3 km/h 28 % 0.0 mm
17:07 27.0 °C 6.9 °C 1006.0 hPa SSW 14.8 km/h 14.8 km/h 28 % 0.0 mm
17:12 27.2 °C 7.1 °C 1006.0 hPa West 9.3 km/h 9.3 km/h 28 % 0.0 mm
17:17 26.6 °C 6.6 °C 1006.0 hPa West 6.9 km/h 6.9 km/h 28 % 0.0 mm
17:22 27.0 °C 6.9 °C 1006.0 hPa NNW 11.9 km/h 11.9 km/h 28 % 0.0 mm
17:27 26.9 °C 6.8 °C 1006.0 hPa SSW 13.0 km/h 13.0 km/h 28 % 0.0 mm
17:32 26.8 °C 6.8 °C 1006.0 hPa WSW 11.1 km/h 11.1 km/h 28 % 0.0 mm
17:37 26.6 °C 6.6 °C 1006.0 hPa SW 13.0 km/h 13.0 km/h 28 % 0.0 mm
17:42 26.6 °C 6.6 °C 1006.0 hPa SW 15.6 km/h 15.6 km/h 28 % 0.0 mm
17:47 26.6 °C 6.6 °C 1006.0 hPa SW 14.8 km/h 14.8 km/h 28 % 0.0 mm
17:52 26.5 °C 6.5 °C 1006.0 hPa SW 13.0 km/h 13.0 km/h 28 % 0.0 mm
17:57 26.3 °C 6.3 °C 1006.0 hPa West 9.3 km/h 9.3 km/h 28 % 0.0 mm
18:02 26.5 °C 6.5 °C 1006.0 hPa SW 14.8 km/h 14.8 km/h 28 % 0.0 mm
18:07 26.3 °C 6.3 °C 1005.0 hPa West 14.8 km/h 14.8 km/h 28 % 0.0 mm
18:12 26.2 °C 6.2 °C 1005.0 hPa WSW 13.0 km/h 13.0 km/h 28 % 0.0 mm
18:17 26.1 °C 5.6 °C 1005.0 hPa SSW 20.4 km/h 20.4 km/h 27 % 0.0 mm
18:22 26.0 °C 5.6 °C 1006.0 hPa WSW 14.8 km/h 14.8 km/h 27 % 0.0 mm
18:27 26.0 °C 5.6 °C 1006.0 hPa West 9.3 km/h 9.3 km/h 27 % 0.0 mm
18:32 26.1 °C 5.6 °C 1006.0 hPa WSW 16.7 km/h 16.7 km/h 27 % 0.0 mm
18:37 25.8 °C 5.4 °C 1006.0 hPa South 17.2 km/h 17.2 km/h 27 % 0.0 mm
18:42 25.7 °C 5.8 °C 1006.0 hPa West 13.0 km/h 13.0 km/h 28 % 0.0 mm
18:47 25.9 °C 6.0 °C 1006.0 hPa WSW 13.0 km/h 13.0 km/h 28 % 0.0 mm
18:52 25.8 °C 5.9 °C 1006.0 hPa WSW 16.7 km/h 16.7 km/h 28 % 0.0 mm
18:57 25.5 °C 5.7 °C 1006.0 hPa SW 13.0 km/h 13.0 km/h 28 % 0.0 mm
19:02 25.3 °C 5.4 °C 1006.0 hPa WSW 18.5 km/h 18.5 km/h 28 % 0.0 mm
19:07 24.9 °C 5.6 °C 1006.0 hPa WNW 9.3 km/h 9.3 km/h 29 % 0.0 mm
19:10 18.4 °C 8.1 °C 1010.0 hPa Calm     51 % 0.0 mm
19:12 24.8 °C 5.6 °C 1006.0 hPa West 11.1 km/h 11.1 km/h 29 % 0.0 mm
19:17 24.6 °C 5.4 °C 1006.0 hPa West 9.3 km/h 9.3 km/h 29 % 0.0 mm
19:20 18.3 °C 8.0 °C 1010.0 hPa NNE 1.6 km/h 1.6 km/h 51 % 0.0 mm
19:22 24.5 °C 5.3 °C 1006.0 hPa WSW 12.2 km/h 12.2 km/h 29 % 0.0 mm
19:27 24.2 °C 5.1 °C 1006.0 hPa West 13.0 km/h 13.0 km/h 29 % 0.0 mm
19:30 18.2 °C 7.9 °C 1009.0 hPa West 1.6 km/h 3.2 km/h 51 % 0.0 mm
19:32 24.0 °C 4.8 °C 1006.0 hPa West 9.3 km/h 9.3 km/h 29 % 0.0 mm
19:37 23.8 °C 4.7 °C 1007.0 hPa WSW 7.4 km/h 7.4 km/h 29 % 0.0 mm
19:40 18.1 °C 7.8 °C 1010.0 hPa West 3.2 km/h 3.2 km/h 51 % 0.0 mm
19:42 23.6 °C 5.0 °C 1007.0 hPa SW 9.3 km/h 9.3 km/h 30 % 0.0 mm
19:47 23.5 °C 4.9 °C 1007.0 hPa WSW 9.0 km/h 9.0 km/h 30 % 0.0 mm
19:49 23.4 °C 4.8 °C 1007.0 hPa WSW 7.4 km/h 7.4 km/h 30 % 0.0 mm
19:50 17.8 °C 7.2 °C 1010.0 hPa WSW 1.6 km/h 3.2 km/h 50 % 0.0 mm
19:54 23.2 °C 4.7 °C 1007.0 hPa WSW 7.4 km/h 7.4 km/h 30 % 0.0 mm
19:59 23.0 °C 4.5 °C 1007.0 hPa WNW 16.7 km/h 16.7 km/h 30 % 0.0 mm
20:00 17.8 °C 7.2 °C 1010.0 hPa WSW 1.6 km/h 3.2 km/h 50 % 0.0 mm
20:04 22.9 °C 4.9 °C 1007.0 hPa WSW 5.6 km/h 5.6 km/h 31 % 0.0 mm
20:09 22.7 °C 4.7 °C 1008.0 hPa West 9.3 km/h 9.3 km/h 31 % 0.0 mm
20:10 17.6 °C 7.1 °C 1009.0 hPa WSW 1.6 km/h 3.2 km/h 50 % 0.0 mm
20:14 22.6 °C 4.6 °C 1008.0 hPa WSW 5.6 km/h 5.6 km/h 31 % 0.0 mm
20:19 22.5 °C 5.0 °C 1008.0 hPa WSW 5.8 km/h 5.8 km/h 32 % 0.0 mm
20:20 17.3 °C 7.1 °C 1009.0 hPa Calm   3.2 km/h 51 % 0.0 mm
20:24 22.4 °C 4.9 °C 1008.0 hPa SW 2.6 km/h   32 % 0.0 mm
20:29 22.2 °C 4.7 °C 1008.0 hPa WSW 1.9 km/h 1.9 km/h 32 % 0.0 mm
20:30 17.2 °C 6.9 °C 1010.0 hPa SW 1.6 km/h 3.2 km/h 51 % 0.0 mm
20:34 22.1 °C 4.6 °C 1008.0 hPa NE 5.6 km/h 5.6 km/h 32 % 0.0 mm
20:39 21.6 °C 5.5 °C 1007.0 hPa ESE 5.6 km/h 5.6 km/h 35 % 0.0 mm
20:40 17.0 °C 6.8 °C 1010.0 hPa WSW 1.6 km/h 3.2 km/h 51 % 0.0 mm
20:44 21.2 °C 5.9 °C 1007.0 hPa NE 5.6 km/h 5.6 km/h 37 % 0.0 mm
20:49 20.9 °C 6.4 °C 1007.0 hPa East 3.9 km/h 3.9 km/h 39 % 0.0 mm
20:50 16.8 °C 6.9 °C 1010.0 hPa Calm   3.2 km/h 52 % 0.0 mm
20:54 20.8 °C 6.7 °C 1008.0 hPa ESE 5.0 km/h 5.0 km/h 40 % 0.0 mm
20:59 20.5 °C 7.2 °C 1008.0 hPa ESE 5.6 km/h 5.6 km/h 42 % 0.0 mm
21:00 16.9 °C 7.0 °C 1010.0 hPa WSW 1.6 km/h 3.2 km/h 52 % 0.0 mm
21:04 20.4 °C 7.4 °C 1008.0 hPa NE 3.5 km/h   43 % 0.0 mm
21:09 20.1 °C 7.4 °C 1009.0 hPa NNE 6.9 km/h 6.9 km/h 44 % 0.0 mm
21:10 17.1 °C 6.9 °C 1010.0 hPa West 3.2 km/h 6.4 km/h 51 % 0.0 mm
21:14 19.9 °C 7.6 °C 1009.0 hPa ENE 9.3 km/h 9.3 km/h 45 % 0.0 mm
21:19 19.8 °C 7.8 °C 1009.0 hPa NNE 5.6 km/h 5.6 km/h 46 % 0.0 mm
21:20 17.4 °C 7.2 °C 1010.0 hPa West 4.8 km/h 8.0 km/h 51 % 0.0 mm
21:24 19.6 °C 8.0 °C 1009.0 hPa ENE 3.5 km/h 3.5 km/h 47 % 0.0 mm
21:29 19.5 °C 8.2 °C 1009.0 hPa NE 5.6 km/h 5.6 km/h 48 % 0.0 mm
21:30 17.6 °C 7.1 °C 1009.0 hPa West 4.8 km/h 8.0 km/h 50 % 0.0 mm
21:34 19.4 °C 8.1 °C 1009.0 hPa ENE 7.4 km/h 7.4 km/h 48 % 0.0 mm
21:36 19.4 °C 8.4 °C 1010.0 hPa NE 9.5 km/h 9.5 km/h 49 % 0.0 mm
21:40 17.6 °C 7.1 °C 1009.0 hPa West 8.0 km/h 8.0 km/h 50 % 0.0 mm
21:41 19.3 °C 8.3 °C 1010.0 hPa NNE 5.6 km/h 5.6 km/h 49 % 0.0 mm
21:46 19.3 °C 8.3 °C 1010.0 hPa NNW 5.6 km/h 5.6 km/h 49 % 0.0 mm
21:50 17.6 °C 7.1 °C 1009.0 hPa West 4.8 km/h 8.0 km/h 50 % 0.0 mm
21:51 19.3 °C 8.6 °C 1010.0 hPa East 3.7 km/h 3.7 km/h 50 % 0.0 mm
22:00 17.7 °C 7.2 °C 1009.0 hPa WSW 4.8 km/h 6.4 km/h 50 % 0.0 mm
22:01 19.2 °C 8.5 °C 1010.0 hPa ENE 5.6 km/h 5.6 km/h 50 % 0.0 mm
22:06 19.1 °C 8.4 °C 1010.0 hPa ENE 2.6 km/h 2.6 km/h 50 % 0.0 mm
22:10 17.9 °C 7.0 °C 1009.0 hPa West 9.7 km/h 9.7 km/h 49 % 0.0 mm
22:11 19.0 °C 8.6 °C 1010.0 hPa ESE 7.4 km/h 7.4 km/h 51 % 0.0 mm
22:16 19.0 °C 8.6 °C 1010.0 hPa ESE 3.7 km/h 3.7 km/h 51 % 0.0 mm
22:20 17.9 °C 7.0 °C 1009.0 hPa West 4.8 km/h 4.8 km/h 49 % 0.0 mm
22:21 18.8 °C 8.4 °C 1010.0 hPa WSW 1.9 km/h 1.9 km/h 51 % 0.0 mm
22:26 18.7 °C 8.6 °C 1010.0 hPa NNE 5.8 km/h 5.8 km/h 52 % 0.0 mm
22:30 17.8 °C 6.9 °C 1009.0 hPa West 4.8 km/h 9.7 km/h 49 % 0.0 mm
22:31 18.6 °C 8.6 °C 1010.0 hPa NNE 5.6 km/h 5.6 km/h 52 % 0.0 mm
22:36 18.6 °C 8.6 °C 1010.0 hPa NNE 5.6 km/h 5.6 km/h 52 % 0.0 mm
22:40 17.7 °C 6.8 °C 1010.0 hPa West 3.2 km/h 6.4 km/h 49 % 0.0 mm
22:41 18.6 °C 8.6 °C 1010.0 hPa NNE 5.6 km/h 5.6 km/h 52 % 0.0 mm
22:46 18.6 °C 8.6 °C 1010.0 hPa NNE 5.6 km/h 5.6 km/h 52 % 0.0 mm
22:50 17.6 °C 6.8 °C 1010.0 hPa WSW 8.0 km/h 8.0 km/h 49 % 0.0 mm
22:51 18.6 °C 8.6 °C 1010.0 hPa NNE 5.6 km/h 5.6 km/h 52 % 0.0 mm
22:56 18.6 °C 8.6 °C 1010.0 hPa NNE 5.6 km/h 5.6 km/h 52 % 0.0 mm
23:00 17.5 °C 6.7 °C 1009.0 hPa WSW 4.8 km/h 8.0 km/h 49 % 0.0 mm
23:01 18.6 °C 8.6 °C 1010.0 hPa NNE 5.6 km/h 5.6 km/h 52 % 0.0 mm
23:06 18.6 °C 8.6 °C 1010.0 hPa NNE 5.6 km/h 5.6 km/h 52 % 0.0 mm
23:10 17.5 °C 6.7 °C 1009.0 hPa WSW 4.8 km/h 4.8 km/h 49 % 0.0 mm
23:11 18.6 °C 8.6 °C 1010.0 hPa NNE 5.6 km/h 5.6 km/h 52 % 0.0 mm
23:16 18.6 °C 8.6 °C 1010.0 hPa NNE 5.6 km/h 5.6 km/h 52 % 0.0 mm
23:20 17.4 °C 6.6 °C 1009.0 hPa WSW 4.8 km/h 6.4 km/h 49 % 0.0 mm
23:21 18.6 °C 8.6 °C 1010.0 hPa NNE 5.6 km/h 5.6 km/h 52 % 0.0 mm
23:26 18.6 °C 8.6 °C 1010.0 hPa NNE 5.6 km/h 5.6 km/h 52 % 0.0 mm
23:30 17.3 °C 6.5 °C 1009.0 hPa WSW 3.2 km/h 6.4 km/h 49 % 0.0 mm
23:36 18.6 °C 8.6 °C 1010.0 hPa NNE 5.6 km/h 5.6 km/h 52 % 0.0 mm
23:40 17.2 °C 6.4 °C 1009.0 hPa West 1.6 km/h 3.2 km/h 49 % 0.0 mm
23:41 18.6 °C 8.6 °C 1010.0 hPa NNE 5.6 km/h 5.6 km/h 52 % 0.0 mm
23:46 18.6 °C 8.6 °C 1010.0 hPa NNE 5.6 km/h 5.6 km/h 52 % 0.0 mm
23:50 17.0 °C 6.5 °C 1009.0 hPa West 1.6 km/h 3.2 km/h 50 % 0.0 mm
23:51 18.6 °C 8.6 °C 1010.0 hPa NNE 5.6 km/h 5.6 km/h 52 % 0.0 mm
23:56 18.6 °C 8.6 °C 1010.0 hPa NNE 5.6 km/h 5.6 km/h 52 % 0.0 mm
Meteo Sesrovires
Elogis d' Weather Underground - 3.75 mb

Guio original per  Jim McMurry - jmcmurry@mwt.net Adaptat per a la plantilla per  Wim van der Kuil - Leuven-Template.eu

Trobareu la nostra informacio del temps tambe a:

Weather Underground

AWEKAS